Time;durP1;ratioP1;P1;durP2;ratioP2;P2;SDS_P1;SDS_P2;PMS_P1;PMS_P2;Temp;Humidity;BMP_temperature;BMP_pressure;BME280_temperature;BME280_humidity;BME280_pressure;Samples;Min_cycle;Max_cycle;Signal;HPM_P1;HPM_P2
2023/07/14 00:01:44;;;;;;;5.78;2.72;;;14.10;99.90;;;;;;4923956;29;20047;-96
2023/07/14 00:04:23;;;;;;;4.88;2.58;;;14.10;99.90;;;;;;4924477;29;20024;-92
2023/07/14 00:06:49;;;;;;;5.28;2.80;;;14.10;99.90;;;;;;4924968;29;20067;-92
2023/07/14 00:09:25;;;;;;;5.15;2.55;;;14.00;99.90;;;;;;4929638;29;20035;-90
2023/07/14 00:11:52;;;;;;;5.30;2.80;;;14.00;99.90;;;;;;4929215;29;20032;-96
2023/07/14 00:14:18;;;;;;;8.02;2.42;;;13.90;99.90;;;;;;4929693;29;20043;-94
2023/07/14 00:16:44;;;;;;;9.30;3.00;;;13.90;99.90;;;;;;4931816;29;20032;-96
2023/07/14 00:19:19;;;;;;;6.05;2.75;;;13.90;99.90;;;;;;4931964;29;20028;-95
2023/07/14 00:21:46;;;;;;;7.50;3.10;;;13.90;99.90;;;;;;4932633;29;20083;-96
2023/07/14 00:24:17;;;;;;;6.40;2.80;;;13.80;99.90;;;;;;4934323;29;20024;-93
2023/07/14 00:26:47;;;;;;;7.95;2.80;;;13.80;99.90;;;;;;4933977;29;20095;-96
2023/07/14 00:29:25;;;;;;;8.13;2.70;;;13.80;99.90;;;;;;4930563;29;20028;-96
2023/07/14 00:31:50;;;;;;;6.80;2.38;;;13.70;99.90;;;;;;4926228;29;20035;-96
2023/07/14 00:34:16;;;;;;;5.70;3.03;;;13.70;99.90;;;;;;4927213;29;20064;-95
2023/07/14 00:36:42;;;;;;;5.75;3.13;;;13.60;99.90;;;;;;4924759;29;20032;-92
2023/07/14 00:39:07;;;;;;;11.38;3.40;;;13.60;99.90;;;;;;4930430;29;20024;-94
2023/07/14 00:41:33;;;;;;;8.35;3.78;;;13.50;99.90;;;;;;4936182;29;20047;-92
2023/07/14 00:43:59;;;;;;;6.35;3.78;;;13.50;99.90;;;;;;4933088;29;20060;-90
2023/07/14 00:46:32;;;;;;;11.02;3.20;;;13.40;99.90;;;;;;4937100;29;20032;-91
2023/07/14 00:49:02;;;;;;;4.10;3.00;;;13.40;99.90;;;;;;4939657;29;20028;-92
2023/07/14 00:51:31;;;;;;;6.15;3.40;;;13.40;99.90;;;;;;4939748;29;20032;-93
2023/07/14 00:53:57;;;;;;;6.13;2.90;;;13.30;99.90;;;;;;4939829;29;20048;-92
2023/07/14 00:56:28;;;;;;;9.30;3.38;;;13.20;99.90;;;;;;4939598;29;20036;-95
2023/07/14 00:58:54;;;;;;;7.13;3.10;;;13.20;99.90;;;;;;4940831;29;20020;-91
2023/07/14 01:01:25;;;;;;;6.70;3.13;;;13.10;99.90;;;;;;4942235;29;20051;-83
2023/07/14 01:03:58;;;;;;;6.40;3.00;;;13.10;99.90;;;;;;4945464;28;20043;-85
2023/07/14 01:06:29;;;;;;;7.30;3.15;;;13.00;99.90;;;;;;4942987;29;20063;-91
2023/07/14 01:09:08;;;;;;;9.65;3.17;;;12.90;99.90;;;;;;4940936;29;20008;-91
2023/07/14 01:11:36;;;;;;;6.18;3.22;;;12.90;99.90;;;;;;4940618;29;20072;-92
2023/07/14 01:14:08;;;;;;;7.60;3.47;;;12.90;99.90;;;;;;4939649;29;20526;-90
2023/07/14 01:16:37;;;;;;;6.90;3.28;;;12.90;99.90;;;;;;4939727;29;20060;-95
2023/07/14 01:19:23;;;;;;;4.72;3.22;;;12.90;99.90;;;;;;4940663;29;20048;-95
2023/07/14 01:22:07;;;;;;;4.85;2.95;;;12.80;99.90;;;;;;4939248;29;20052;-91
2023/07/14 01:24:40;;;;;;;8.23;3.00;;;12.80;99.90;;;;;;4941173;29;20028;-91
2023/07/14 01:27:08;;;;;;;7.63;2.80;;;12.80;99.90;;;;;;4941059;29;20012;-90
2023/07/14 01:29:34;;;;;;;7.25;2.97;;;12.90;99.90;;;;;;4941458;29;20012;-85
2023/07/14 01:32:02;;;;;;;5.18;2.65;;;12.90;99.90;;;;;;4940925;29;20092;-95
2023/07/14 01:34:28;;;;;;;7.03;2.83;;;12.90;99.90;;;;;;4940985;29;20039;-91
2023/07/14 01:36:58;;;;;;;5.40;2.40;;;12.90;99.90;;;;;;4939907;29;20032;-90
2023/07/14 01:39:28;;;;;;;5.80;3.22;;;12.90;99.90;;;;;;4927715;29;20033;-93
2023/07/14 01:41:54;;;;;;;5.97;3.30;;;12.90;99.90;;;;;;4923006;29;20025;-91
2023/07/14 01:44:21;;;;;;;9.60;2.90;;;12.80;99.90;;;;;;4923237;29;20061;-91
2023/07/14 01:46:48;;;;;;;6.25;2.70;;;12.70;99.90;;;;;;4923533;29;20087;-92
2023/07/14 01:49:20;;;;;;;4.35;2.70;;;12.70;99.90;;;;;;4938502;29;20012;-86
2023/07/14 01:51:48;;;;;;;4.47;2.85;;;12.70;99.90;;;;;;4938269;29;20033;-88
2023/07/14 01:54:34;;;;;;;7.82;3.30;;;12.70;99.90;;;;;;4936509;29;20146;-93
2023/07/14 01:57:03;;;;;;;4.97;2.90;;;12.60;99.90;;;;;;4936558;29;20035;-95
2023/07/14 01:59:35;;;;;;;6.10;2.80;;;12.60;99.90;;;;;;4922741;29;20033;-90
2023/07/14 02:02:04;;;;;;;6.10;2.97;;;12.60;99.90;;;;;;4922374;29;20047;-85
2023/07/14 02:04:36;;;;;;;6.10;2.80;;;12.60;99.90;;;;;;4921815;29;20052;-91
2023/07/14 02:07:02;;;;;;;5.85;2.53;;;12.60;99.90;;;;;;4920926;29;20044;-86
2023/07/14 02:09:29;;;;;;;4.57;2.92;;;12.50;99.90;;;;;;4937109;29;20032;-93
2023/07/14 02:12:02;;;;;;;8.50;3.10;;;12.50;99.90;;;;;;4921062;29;20040;-92
2023/07/14 02:14:40;;;;;;;3.70;2.65;;;12.50;99.90;;;;;;4921266;29;20048;-89
2023/07/14 02:17:18;;;;;;;5.15;2.65;;;12.50;99.90;;;;;;4922497;29;20124;-91
2023/07/14 02:19:44;;;;;;;5.82;3.10;;;12.50;99.90;;;;;;4922212;29;20028;-91
2023/07/14 02:22:09;;;;;;;6.32;2.65;;;12.40;99.90;;;;;;4920772;29;20020;-86
2023/07/14 02:24:35;;;;;;;4.53;2.80;;;12.40;99.90;;;;;;4936585;29;20017;-88
2023/07/14 02:27:04;;;;;;;6.47;2.95;;;12.50;99.90;;;;;;4920471;29;20340;-93
2023/07/14 02:29:30;;;;;;;8.05;2.78;;;12.50;99.90;;;;;;4921569;29;20036;-90
2023/07/14 02:32:17;;;;;;;7.07;2.83;;;12.50;99.90;;;;;;4915777;29;20064;-90
2023/07/14 02:34:56;;;;;;;5.20;3.10;;;12.50;99.90;;;;;;4934505;29;20033;-90
2023/07/14 02:38:01;;;;;;;5.97;2.95;;;12.50;99.90;;;;;;4919703;29;20020;-90
2023/07/14 02:40:38;;;;;;;4.85;2.67;;;12.50;99.90;;;;;;4921600;29;20091;-82
2023/07/14 02:43:09;;;;;;;5.32;3.03;;;12.40;99.90;;;;;;4922131;29;20077;-84
2023/07/14 02:45:41;;;;;;;7.65;3.03;;;12.40;99.90;;;;;;4921267;29;20069;-92
2023/07/14 02:48:12;;;;;;;4.95;2.72;;;12.40;99.90;;;;;;4915922;29;20088;-91
2023/07/14 02:50:38;;;;;;;7.20;3.42;;;12.30;99.90;;;;;;4932268;29;20044;-91
2023/07/14 02:53:04;;;;;;;6.75;2.58;;;12.40;99.90;;;;;;4918332;29;20068;-93
2023/07/14 02:55:29;;;;;;;5.30;3.17;;;12.30;99.90;;;;;;4919442;29;20044;-86
2023/07/14 02:57:55;;;;;;;5.47;2.97;;;12.30;99.90;;;;;;4931043;29;20055;-92
2023/07/14 03:00:23;;;;;;;7.45;3.17;;;12.40;99.90;;;;;;4927784;29;20032;-93
2023/07/14 03:02:49;;;;;;;5.03;2.42;;;12.30;99.90;;;;;;4930544;29;20055;-94
2023/07/14 03:05:17;;;;;;;5.65;2.30;;;12.40;99.90;;;;;;4942228;29;20454;-93
2023/07/14 03:07:44;;;;;;;4.22;2.70;;;12.40;99.90;;;;;;4951747;29;20028;-96
2023/07/14 03:10:10;;;;;;;4.03;2.58;;;12.50;99.90;;;;;;4952753;29;20067;-90
2023/07/14 03:12:36;;;;;;;4.15;2.45;;;12.50;99.90;;;;;;4951464;29;20027;-94
2023/07/14 03:15:03;;;;;;;5.55;2.80;;;12.60;99.90;;;;;;4954497;29;20079;-94
2023/07/14 03:17:29;;;;;;;5.85;2.83;;;12.60;99.90;;;;;;4951141;29;20027;-93
2023/07/14 03:19:55;;;;;;;3.75;2.20;;;12.60;99.90;;;;;;4937015;29;20020;-94
2023/07/14 03:22:22;;;;;;;4.60;2.58;;;12.70;99.90;;;;;;4935821;29;20031;-95
2023/07/14 03:24:48;;;;;;;6.28;2.80;;;12.70;99.90;;;;;;4930416;29;20052;-95
2023/07/14 03:27:14;;;;;;;3.38;2.40;;;12.70;99.90;;;;;;4931600;29;20028;-94
2023/07/14 03:29:40;;;;;;;6.28;2.80;;;12.80;99.90;;;;;;4933280;29;20052;-95
2023/07/14 03:32:11;;;;;;;7.75;2.80;;;12.80;99.90;;;;;;4933381;29;20112;-95
2023/07/14 03:34:36;;;;;;;;;;;12.80;99.90;;;;;;4938118;29;20043;-93
2023/07/14 03:37:05;;;;;;;5.47;2.60;;;12.80;99.90;;;;;;4938268;29;19982;-86
2023/07/14 03:39:30;;;;;;;8.55;3.55;;;12.80;99.90;;;;;;4933265;29;20020;-95
2023/07/14 03:41:57;;;;;;;6.40;2.20;;;12.70;99.90;;;;;;4936021;29;20083;-92
2023/07/14 03:44:24;;;;;;;6.57;2.80;;;12.70;99.90;;;;;;4935515;29;20043;-93
2023/07/14 03:46:50;;;;;;;11.50;2.58;;;12.70;99.90;;;;;;4940167;29;20029;-95
2023/07/14 03:49:16;;;;;;;6.68;2.80;;;12.70;99.90;;;;;;4941395;29;20048;-95
2023/07/14 03:51:42;;;;;;;6.82;2.70;;;12.80;99.90;;;;;;4940409;29;20092;-89
2023/07/14 03:54:09;;;;;;;4.70;2.70;;;12.70;99.90;;;;;;4943488;29;20055;-90
2023/07/14 03:56:35;;;;;;;5.85;3.08;;;12.70;99.90;;;;;;4940663;29;20087;-90
2023/07/14 03:59:01;;;;;;;7.70;2.92;;;12.70;99.90;;;;;;4937601;29;20021;-94
2023/07/14 04:01:27;;;;;;;6.05;2.40;;;12.70;99.90;;;;;;4925619;29;20043;-94
2023/07/14 04:03:54;;;;;;;7.00;3.05;;;12.70;99.90;;;;;;4926752;29;20023;-95
2023/07/14 04:06:20;;;;;;;8.20;2.67;;;12.70;99.90;;;;;;4924807;29;20491;-95
2023/07/14 04:08:46;;;;;;;7.00;2.90;;;12.80;99.90;;;;;;4924917;29;20024;-94
2023/07/14 04:11:12;;;;;;;5.47;2.72;;;12.80;99.90;;;;;;4925942;29;20473;-94
2023/07/14 04:13:39;;;;;;;5.95;2.92;;;12.80;99.90;;;;;;4931022;29;20020;-95
2023/07/14 04:16:07;;;;;;;10.55;2.90;;;12.80;99.90;;;;;;4932554;29;20024;-96
2023/07/14 04:18:36;;;;;;;7.68;2.60;;;12.90;99.90;;;;;;4938649;29;20051;-88
2023/07/14 04:21:13;;;;;;;5.80;3.67;;;12.90;99.90;;;;;;4943172;29;20113;-90
2023/07/14 04:23:40;;;;;;;4.65;2.88;;;12.90;99.90;;;;;;4943630;29;20004;-90
2023/07/14 04:26:08;;;;;;;5.60;2.80;;;12.90;99.90;;;;;;4931353;29;20741;-94
2023/07/14 04:28:35;;;;;;;4.80;2.90;;;12.90;99.90;;;;;;4926904;29;20021;-95
2023/07/14 04:31:01;;;;;;;5.18;2.80;;;12.90;99.90;;;;;;4927548;29;20114;-96
2023/07/14 04:33:27;;;;;;;4.80;2.80;;;13.00;99.90;;;;;;4931687;29;20024;-92
2023/07/14 04:35:54;;;;;;;4.90;3.05;;;13.00;99.90;;;;;;4933896;29;20047;-96
2023/07/14 04:38:21;;;;;;;6.57;3.08;;;12.90;99.90;;;;;;4938178;29;20056;-96
2023/07/14 04:40:47;;;;;;;9.90;3.08;;;12.90;99.90;;;;;;4940511;29;20012;-90
2023/07/14 04:43:14;;;;;;;5.18;2.72;;;13.00;99.90;;;;;;4937650;29;20047;-94
2023/07/14 04:45:41;;;;;;;6.28;3.65;;;13.00;99.90;;;;;;4935626;29;20071;-95
2023/07/14 04:48:09;;;;;;;7.05;3.00;;;13.00;99.90;;;;;;4932205;29;20028;-95
2023/07/14 04:50:35;;;;;;;9.73;3.15;;;13.00;99.90;;;;;;4928451;29;20043;-95
2023/07/14 04:53:05;;;;;;;5.13;2.60;;;13.10;99.90;;;;;;4930738;29;20044;-96
2023/07/14 04:55:49;;;;;;;6.80;3.15;;;13.10;99.90;;;;;;4935965;29;20040;-95
2023/07/14 04:58:17;;;;;;;6.13;2.67;;;13.20;99.90;;;;;;4933718;29;20068;-92
2023/07/14 05:00:44;;;;;;;9.15;3.08;;;13.20;99.90;;;;;;4934746;29;20052;-86
2023/07/14 05:03:10;;;;;;;6.15;2.92;;;13.20;99.90;;;;;;4937085;29;20029;-96
2023/07/14 05:05:36;;;;;;;6.38;2.88;;;13.20;99.90;;;;;;4940477;29;20024;-94
2023/07/14 05:08:02;;;;;;;5.55;3.10;;;13.20;99.90;;;;;;4956278;29;20569;-95
2023/07/14 05:10:31;;;;;;;5.88;2.92;;;13.20;99.90;;;;;;4956009;29;20071;-96
2023/07/14 05:12:57;;;;;;;7.68;3.45;;;13.20;99.90;;;;;;4957814;29;20023;-85
2023/07/14 05:15:25;;;;;;;7.47;2.90;;;13.20;99.90;;;;;;4959665;29;20047;-93
2023/07/14 05:17:51;;;;;;;7.95;2.72;;;13.20;99.90;;;;;;4957881;29;20031;-88
2023/07/14 05:20:18;;;;;;;5.80;2.83;;;13.20;99.90;;;;;;4943558;29;20064;-92
2023/07/14 05:22:47;;;;;;;7.05;3.40;;;13.30;99.90;;;;;;4940532;29;20052;-94
2023/07/14 05:25:14;;;;;;;8.25;3.67;;;13.40;99.90;;;;;;4937888;29;20032;-93
2023/07/14 05:27:41;;;;;;;4.50;2.95;;;13.40;99.90;;;;;;4933547;29;20072;-94
2023/07/14 05:30:10;;;;;;;7.70;3.15;;;13.40;99.90;;;;;;4933922;29;20028;-92
2023/07/14 05:32:36;;;;;;;4.05;2.75;;;13.50;99.90;;;;;;4927180;29;20016;-93
2023/07/14 05:35:02;;;;;;;4.85;3.00;;;13.60;99.90;;;;;;4930590;29;20082;-95
2023/07/14 05:37:28;;;;;;;4.97;3.05;;;13.60;99.90;;;;;;4929361;29;20016;-92
2023/07/14 05:39:54;;;;;;;10.13;3.15;;;13.60;99.90;;;;;;4928849;29;20028;-92
2023/07/14 05:42:20;;;;;;;5.72;3.15;;;13.60;99.90;;;;;;4932301;29;20063;-93
2023/07/14 05:44:45;;;;;;;7.03;3.28;;;13.70;99.90;;;;;;4931769;29;20043;-95
2023/07/14 05:47:12;;;;;;;9.68;3.83;;;13.70;99.90;;;;;;4928102;29;20028;-94
2023/07/14 05:49:38;;;;;;;5.05;3.13;;;13.70;99.90;;;;;;4928643;29;20390;-96
2023/07/14 05:52:04;;;;;;;5.05;3.00;;;13.70;99.90;;;;;;4927236;29;20035;-94
2023/07/14 05:54:30;;;;;;;6.70;3.65;;;13.70;99.90;;;;;;4932613;29;20062;-89
2023/07/14 05:56:56;;;;;;;7.35;3.20;;;13.80;99.90;;;;;;4939905;29;20024;-85
2023/07/14 05:59:22;;;;;;;7.97;3.53;;;13.80;99.90;;;;;;4941122;29;20021;-88
2023/07/14 06:01:48;;;;;;;6.63;3.25;;;13.90;99.90;;;;;;4940986;29;20052;-90
2023/07/14 06:04:15;;;;;;;6.32;2.88;;;13.90;99.90;;;;;;4925254;29;20024;-94
2023/07/14 06:06:41;;;;;;;5.88;3.40;;;14.00;99.90;;;;;;4921766;29;20557;-93
2023/07/14 06:09:09;;;;;;;6.18;3.15;;;14.00;99.90;;;;;;4918919;29;20060;-96
2023/07/14 06:11:35;;;;;;;6.55;3.88;;;14.10;99.90;;;;;;4920373;29;20035;-93
2023/07/14 06:14:01;;;;;;;10.35;4.32;;;14.10;99.90;;;;;;4922134;29;20479;-95
2023/07/14 06:16:27;;;;;;;7.25;4.18;;;14.20;99.90;;;;;;4922348;29;20032;-93
2023/07/14 06:18:53;;;;;;;7.50;3.40;;;14.30;99.90;;;;;;4928562;29;20052;-93
2023/07/14 06:21:19;;;;;;;7.95;3.75;;;14.30;99.90;;;;;;4926782;29;20070;-92
2023/07/14 06:23:44;;;;;;;11.25;4.45;;;14.40;99.90;;;;;;4937042;29;20032;-95
2023/07/14 06:26:11;;;;;;;6.40;3.72;;;14.40;99.90;;;;;;4942513;29;20039;-94
2023/07/14 06:28:37;;;;;;;13.43;4.15;;;14.50;99.90;;;;;;4936931;29;20032;-95
2023/07/14 06:31:05;;;;;;;9.65;3.80;;;14.60;99.90;;;;;;4926634;29;20028;-94
2023/07/14 06:33:32;;;;;;;10.18;3.70;;;14.60;99.90;;;;;;4922093;29;20071;-94
2023/07/14 06:35:58;;;;;;;7.30;3.70;;;14.60;99.90;;;;;;4924708;29;20032;-95
2023/07/14 06:38:25;;;;;;;12.18;4.00;;;14.70;99.90;;;;;;4925075;29;20031;-95
2023/07/14 06:40:59;;;;;;;9.23;3.50;;;14.80;99.90;;;;;;4926594;29;20028;-95
2023/07/14 06:43:25;;;;;;;11.55;4.07;;;14.80;99.90;;;;;;4922906;29;20024;-95
2023/07/14 06:45:51;;;;;;;10.82;3.75;;;14.90;99.90;;;;;;4931400;29;20494;-92
2023/07/14 06:48:17;;;;;;;7.60;4.18;;;14.90;99.90;;;;;;4929907;29;20084;-95
2023/07/14 06:50:45;;;;;;;5.30;3.40;;;14.90;99.90;;;;;;4904982;29;20064;-92
2023/07/14 06:53:10;;;;;;;10.38;4.95;;;15.00;99.90;;;;;;4904798;29;20041;-95
2023/07/14 06:55:38;;;;;;;8.13;3.58;;;15.10;99.90;;;;;;4918396;29;20039;-95
2023/07/14 06:58:04;;;;;;;11.95;3.58;;;15.10;99.90;;;;;;4921258;29;20062;-95
2023/07/14 07:00:31;;;;;;;8.25;3.38;;;15.10;99.90;;;;;;4920041;29;20070;-95
2023/07/14 07:02:57;;;;;;;6.40;3.63;;;15.10;99.90;;;;;;4919929;29;20017;-93
2023/07/14 07:05:23;;;;;;;8.00;4.00;;;15.20;99.90;;;;;;4920621;29;20108;-93
2023/07/14 07:07:49;;;;;;;9.13;3.95;;;15.30;99.90;;;;;;4924787;29;20471;-93
2023/07/14 07:10:15;;;;;;;11.63;4.50;;;15.30;99.90;;;;;;4918261;29;20024;-95
2023/07/14 07:12:41;;;;;;;8.32;4.35;;;15.30;99.90;;;;;;4917724;29;20016;-95
2023/07/14 07:15:08;;;;;;;10.85;4.72;;;15.30;99.90;;;;;;4917889;29;20103;-93
2023/07/14 07:17:33;;;;;;;11.75;4.72;;;15.30;99.90;;;;;;4918929;29;20028;-91
2023/07/14 07:19:59;;;;;;;9.00;5.50;;;15.30;99.90;;;;;;4919510;29;20438;-95
2023/07/14 07:22:25;;;;;;;8.38;3.72;;;15.40;99.90;;;;;;4917418;29;20035;-94
2023/07/14 07:24:50;;;;;;;14.23;4.65;;;15.40;99.90;;;;;;4919088;29;20040;-94
2023/07/14 07:27:16;;;;;;;9.05;4.38;;;15.50;99.90;;;;;;4918741;29;20028;-95
2023/07/14 07:29:42;;;;;;;13.77;4.30;;;15.50;99.90;;;;;;4916884;29;20035;-94
2023/07/14 07:32:09;;;;;;;11.50;4.13;;;15.60;99.90;;;;;;4919258;29;20115;-95
2023/07/14 07:34:34;;;;;;;10.07;4.25;;;15.60;99.90;;;;;;4930541;29;20028;-96
2023/07/14 07:37:00;;;;;;;10.02;4.00;;;15.60;99.90;;;;;;4942681;29;20084;-92
2023/07/14 07:39:26;;;;;;;8.43;3.95;;;15.70;99.90;;;;;;4939726;29;20068;-94
2023/07/14 07:41:53;;;;;;;9.52;3.95;;;15.70;99.90;;;;;;4920155;29;20027;-90
2023/07/14 07:44:19;;;;;;;6.72;3.45;;;15.70;99.90;;;;;;4939276;29;20012;-94
2023/07/14 07:46:45;;;;;;;7.55;3.50;;;15.80;99.90;;;;;;4930762;29;20071;-94
2023/07/14 07:49:11;;;;;;;7.68;3.67;;;15.80;99.90;;;;;;4935792;29;20044;-93
2023/07/14 07:51:36;;;;;;;14.75;3.83;;;15.90;99.90;;;;;;4932311;29;20035;-96
2023/07/14 07:54:02;;;;;;;11.13;4.72;;;15.90;99.90;;;;;;4929550;28;20044;-94
2023/07/14 07:56:28;;;;;;;13.48;3.85;;;15.90;99.90;;;;;;4950015;29;20048;-94
2023/07/14 07:58:53;;;;;;;10.27;3.65;;;15.90;99.90;;;;;;4930715;29;20035;-96
2023/07/14 08:01:23;;;;;;;8.80;3.53;;;15.90;99.90;;;;;;4922216;29;20027;-94
2023/07/14 08:03:52;;;;;;;7.93;3.75;;;15.90;99.90;;;;;;4918595;29;20024;-94
2023/07/14 08:06:19;;;;;;;9.35;3.20;;;15.90;99.90;;;;;;4938871;29;20080;-90
2023/07/14 08:08:45;;;;;;;11.93;4.32;;;15.90;99.90;;;;;;4939168;29;20055;-86
2023/07/14 08:11:13;;;;;;;11.32;3.70;;;15.90;99.90;;;;;;4940042;28;20016;-93
2023/07/14 08:13:40;;;;;;;9.35;3.50;;;15.90;99.90;;;;;;4921268;29;20043;-90
2023/07/14 08:16:06;;;;;;;9.68;3.70;;;15.90;99.90;;;;;;4939221;29;20028;-91
2023/07/14 08:18:32;;;;;;;10.15;3.60;;;15.90;99.90;;;;;;4938832;29;20012;-87
2023/07/14 08:20:59;;;;;;;9.43;3.25;;;15.80;99.90;;;;;;4939377;29;20039;-82
2023/07/14 08:23:25;;;;;;;9.10;3.40;;;15.80;99.90;;;;;;4940261;29;20020;-90
2023/07/14 08:25:56;;;;;;;8.10;3.63;;;15.80;99.90;;;;;;4940005;29;20051;-89
2023/07/14 08:28:22;;;;;;;8.18;3.40;;;15.80;99.90;;;;;;4939387;29;20088;-87
2023/07/14 08:30:50;;;;;;;11.93;3.97;;;15.80;99.90;;;;;;4938216;29;20024;-93
2023/07/14 08:33:19;;;;;;;8.77;3.67;;;15.80;99.90;;;;;;4940853;29;20019;-91
2023/07/14 08:35:48;;;;;;;8.90;3.58;;;15.90;99.90;;;;;;4938359;29;20067;-89
2023/07/14 08:38:14;;;;;;;6.68;3.72;;;15.90;99.90;;;;;;4935977;29;20035;-85
2023/07/14 08:40:59;;;;;;;12.48;4.60;;;15.80;99.90;;;;;;4925366;29;20020;-87
2023/07/14 08:43:44;;;;;;;7.53;3.80;;;15.80;99.90;;;;;;4942048;29;20005;-84
2023/07/14 08:46:19;;;;;;;10.82;4.25;;;15.90;99.90;;;;;;4928388;29;20045;-91
2023/07/14 08:48:57;;;;;;;7.75;3.88;;;15.90;99.90;;;;;;4934402;29;20043;-91
2023/07/14 08:51:39;;;;;;;6.00;3.63;;;15.90;99.90;;;;;;4941674;29;20032;-91
2023/07/14 08:54:19;;;;;;;8.32;3.97;;;15.80;99.90;;;;;;4935604;29;20056;-94
2023/07/14 08:56:46;;;;;;;5.18;3.47;;;15.80;99.90;;;;;;4933959;29;20032;-90
2023/07/14 08:59:31;;;;;;;10.82;4.47;;;15.80;99.90;;;;;;4938381;29;20028;-94
2023/07/14 09:01:59;;;;;;;8.68;3.85;;;15.80;99.90;;;;;;4938026;29;20020;-85
2023/07/14 09:04:28;;;;;;;11.13;4.30;;;15.80;99.90;;;;;;4949273;29;20049;-89
2023/07/14 09:06:55;;;;;;;8.80;4.27;;;15.80;99.90;;;;;;4945075;28;20036;-85
2023/07/14 09:09:32;;;;;;;7.57;4.45;;;15.90;99.90;;;;;;4962576;28;20011;-91
2023/07/14 09:12:03;;;;;;;8.45;3.90;;;15.90;99.90;;;;;;4962159;28;20027;-89
2023/07/14 09:14:48;;;;;;;9.60;4.05;;;15.80;99.90;;;;;;4961133;28;20075;-88
2023/07/14 09:17:40;;;;;;;7.55;3.67;;;15.90;99.90;;;;;;4942449;29;20080;-86
2023/07/14 09:20:12;;;;;;;10.07;3.80;;;15.90;99.90;;;;;;4940673;29;20035;-90
2023/07/14 09:22:40;;;;;;;8.25;3.53;;;15.90;99.90;;;;;;4940594;29;20088;-92
2023/07/14 09:25:37;;;;;;;6.97;3.58;;;15.90;99.90;;;;;;4940720;29;20023;-94
2023/07/14 09:28:09;;;;;;;5.45;3.30;;;15.90;99.90;;;;;;4935192;29;20016;-88
2023/07/14 09:30:35;;;;;;;6.43;3.25;;;15.90;99.90;;;;;;4934067;29;20075;-87
2023/07/14 09:33:03;;;;;;;6.13;3.17;;;15.90;99.90;;;;;;4942923;29;20023;-83
2023/07/14 09:35:30;;;;;;;5.07;3.05;;;16.00;99.90;;;;;;4934500;29;20079;-94
2023/07/14 09:38:15;;;;;;;11.85;3.00;;;16.00;99.90;;;;;;4936340;29;20028;-95
2023/07/14 09:40:43;;;;;;;4.82;3.10;;;16.00;99.90;;;;;;4938884;29;20023;-89
2023/07/14 09:43:10;;;;;;;6.57;2.78;;;16.00;99.90;;;;;;4929054;29;20039;-95
2023/07/14 09:45:39;;;;;;;5.47;2.70;;;16.00;99.90;;;;;;4922731;29;20020;-96
2023/07/14 09:48:23;;;;;;;7.10;2.45;;;16.00;99.90;;;;;;4925706;29;20063;-93
2023/07/14 09:51:01;;;;;;;7.93;3.10;;;16.00;99.90;;;;;;4930702;29;20035;-94
2023/07/14 09:53:31;;;;;;;6.07;2.47;;;16.00;99.90;;;;;;4922103;29;20537;-94
2023/07/14 09:56:07;;;;;;;5.45;3.08;;;16.00;99.90;;;;;;4924876;29;20040;-93
2023/07/14 09:58:33;;;;;;;6.05;2.65;;;15.90;99.90;;;;;;4932663;29;20059;-94
2023/07/14 10:01:05;;;;;;;6.28;2.45;;;15.90;99.90;;;;;;4919162;29;20111;-94
2023/07/14 10:03:42;;;;;;;5.15;2.35;;;15.90;99.90;;;;;;4918869;29;20482;-93
2023/07/14 10:06:28;;;;;;;4.10;2.28;;;15.80;99.90;;;;;;4919186;29;20039;-95
2023/07/14 10:08:56;;;;;;;7.78;2.67;;;15.80;99.90;;;;;;4914526;29;20032;-94
2023/07/14 10:11:25;;;;;;;5.00;2.58;;;15.70;99.90;;;;;;4922325;29;20056;-92
2023/07/14 10:14:05;;;;;;;4.60;2.72;;;15.70;99.90;;;;;;4912497;29;20032;-93
2023/07/14 10:16:32;;;;;;;4.35;2.38;;;15.70;99.90;;;;;;4917216;29;20071;-93
2023/07/14 10:19:11;;;;;;;5.07;2.83;;;15.70;99.90;;;;;;4916109;29;20040;-95
2023/07/14 10:21:38;;;;;;;6.65;2.95;;;15.70;99.90;;;;;;4918535;29;20024;-91
2023/07/14 10:24:05;;;;;;;5.20;2.63;;;15.80;99.90;;;;;;4914055;29;20040;-92
2023/07/14 10:26:38;;;;;;;5.32;2.72;;;15.80;99.90;;;;;;4917061;29;20027;-91
2023/07/14 10:29:15;;;;;;;4.70;2.53;;;15.80;99.90;;;;;;4918105;29;20036;-92
2023/07/14 10:31:47;;;;;;;3.67;2.53;;;15.80;99.90;;;;;;4916514;29;20052;-91
2023/07/14 10:34:41;;;;;;;7.15;2.75;;;15.80;99.90;;;;;;4917709;29;20042;-91
2023/07/14 10:37:18;;;;;;;6.20;2.60;;;15.80;99.90;;;;;;4917991;29;20063;-92
2023/07/14 10:39:50;;;;;;;7.47;2.72;;;15.80;99.90;;;;;;4906730;29;20376;-92
2023/07/14 10:42:21;;;;;;;7.20;3.10;;;15.80;99.90;;;;;;4916351;29;20498;-91
2023/07/14 10:44:48;;;;;;;6.03;3.28;;;15.80;99.90;;;;;;4917807;29;20107;-91
2023/07/14 10:47:23;;;;;;;10.35;3.47;;;15.80;99.90;;;;;;4921459;29;20104;-88
2023/07/14 10:49:59;;;;;;;6.15;3.15;;;15.80;99.90;;;;;;4921767;29;20031;-83
2023/07/14 10:52:39;;;;;;;6.20;3.08;;;15.90;99.90;;;;;;4937086;29;20020;-88
2023/07/14 10:55:13;;;;;;;6.57;3.00;;;15.90;99.90;;;;;;4919765;29;20066;-94
2023/07/14 10:57:42;;;;;;;9.75;2.88;;;15.90;99.90;;;;;;4918084;29;20583;-92
2023/07/14 11:00:19;;;;;;;6.32;2.90;;;15.90;99.90;;;;;;4917107;29;20226;-94
2023/07/14 11:03:23;;;;;;;7.60;3.42;;;15.90;99.90;;;;;;4917358;29;20028;-94
2023/07/14 11:06:15;;;;;;;5.90;2.60;;;15.90;99.90;;;;;;4896898;29;20119;-91
2023/07/14 11:08:41;;;;;;;3.50;2.60;;;16.00;99.90;;;;;;4907928;29;20032;-94
2023/07/14 11:11:18;;;;;;;3.58;2.63;;;15.90;99.90;;;;;;4906689;29;20116;-95
2023/07/14 11:14:12;;;;;;;5.35;2.88;;;16.00;99.90;;;;;;4896529;29;20041;-94
2023/07/14 11:17:05;;;;;;;4.95;2.85;;;16.00;99.90;;;;;;4897082;29;20049;-95
2023/07/14 11:19:59;;;;;;;9.50;3.25;;;15.90;99.90;;;;;;4900071;29;20020;-93
2023/07/14 11:22:45;;;;;;;4.95;2.85;;;15.90;99.90;;;;;;4881673;29;20044;-93
2023/07/14 11:25:21;;;;;;;5.18;2.67;;;15.80;99.90;;;;;;4907835;29;20033;-92
2023/07/14 11:28:04;;;;;;;3.97;2.45;;;15.60;99.90;;;;;;4915340;29;20025;-91
2023/07/14 11:30:42;;;;;;;4.75;2.67;;;15.50;99.90;;;;;;4916889;29;20041;-94
2023/07/14 11:33:21;;;;;;;7.03;2.78;;;15.40;99.90;;;;;;4910323;29;20035;-92
2023/07/14 11:35:55;;;;;;;8.27;2.58;;;15.40;99.90;;;;;;4911799;29;20059;-96
2023/07/14 11:38:41;;;;;;;5.55;2.25;;;15.30;99.90;;;;;;4890285;29;20103;-95
2023/07/14 11:41:06;;;;;;;5.45;2.10;;;15.20;99.90;;;;;;4890543;29;20070;-94
2023/07/14 11:43:33;;;;;;;5.05;2.20;;;15.20;99.90;;;;;;4920245;29;20028;-94
2023/07/14 11:46:04;;;;;;;5.20;2.45;;;15.20;99.90;;;;;;4915554;29;20025;-94
2023/07/14 11:48:45;;;;;;;5.00;2.40;;;15.10;99.90;;;;;;4920806;29;20107;-94
2023/07/14 11:51:13;;;;;;;;;;;15.10;99.90;;;;;;4917525;29;20067;-94
2023/07/14 11:53:41;;;;;;;6.93;2.95;;;15.20;99.90;;;;;;4922645;29;19945;-94
2023/07/14 11:56:18;;;;;;;4.60;2.88;;;15.20;99.90;;;;;;4924726;29;20040;-95
2023/07/14 11:58:45;;;;;;;3.88;2.80;;;15.20;99.90;;;;;;4932583;29;20032;-94
2023/07/14 12:01:17;;;;;;;5.25;3.13;;;15.30;99.90;;;;;;4931844;29;20084;-95
2023/07/14 12:03:52;;;;;;;5.68;2.85;;;15.30;99.90;;;;;;4932666;29;20024;-95
2023/07/14 12:06:24;;;;;;;5.72;3.42;;;15.30;99.90;;;;;;4933127;29;20096;-94
2023/07/14 12:09:05;;;;;;;6.35;3.33;;;15.30;99.90;;;;;;4925230;29;20039;-94
2023/07/14 12:11:50;;;;;;;12.02;3.55;;;15.20;99.90;;;;;;4930415;29;20039;-95
2023/07/14 12:14:37;;;;;;;5.85;3.30;;;15.10;99.90;;;;;;4927598;29;20045;-95
2023/07/14 12:17:38;;;;;;;6.40;3.33;;;15.10;99.90;;;;;;4919401;29;20032;-96
2023/07/14 12:20:32;;;;;;;6.80;3.58;;;15.00;99.90;;;;;;4919240;29;20024;-95
2023/07/14 12:23:13;;;;;;;6.97;2.85;;;15.00;99.90;;;;;;4910218;29;20036;-93
2023/07/14 12:25:44;;;;;;;6.30;2.80;;;15.00;99.90;;;;;;4919573;29;20024;-94
2023/07/14 12:28:36;;;;;;;5.60;2.25;;;15.00;99.90;;;;;;4920593;29;20096;-95
2023/07/14 12:31:11;;;;;;;3.55;1.95;;;15.00;99.90;;;;;;4916761;29;20088;-96
2023/07/14 12:33:37;;;;;;;3.33;2.10;;;15.10;99.90;;;;;;4920090;29;20119;-96
2023/07/14 12:36:04;;;;;;;3.92;2.10;;;15.00;99.90;;;;;;4920162;29;20083;-96
2023/07/14 12:38:30;;;;;;;3.03;2.00;;;15.00;99.90;;;;;;4921414;29;20052;-95
2023/07/14 12:40:57;;;;;;;4.20;1.80;;;15.10;99.90;;;;;;4922032;29;20466;-95
2023/07/14 12:43:27;;;;;;;3.20;2.20;;;15.10;99.90;;;;;;4928279;29;20016;-93
2023/07/14 12:45:57;;;;;;;5.97;2.30;;;15.10;99.90;;;;;;4930673;29;20054;-93
2023/07/14 12:48:28;;;;;;;6.35;2.92;;;15.10;99.90;;;;;;4919102;29;20052;-94
2023/07/14 12:50:56;;;;;;;3.20;2.63;;;15.10;99.90;;;;;;4922074;29;20079;-95
2023/07/14 12:53:22;;;;;;;4.47;3.08;;;15.10;99.90;;;;;;4921871;29;20048;-96
2023/07/14 12:55:47;;;;;;;4.30;2.85;;;15.10;99.90;;;;;;4918722;29;20486;-94
2023/07/14 12:58:22;;;;;;;6.47;3.65;;;15.20;99.90;;;;;;4920745;29;20020;-95
2023/07/14 13:00:54;;;;;;;6.68;3.22;;;15.20;99.90;;;;;;4918486;29;20434;-95
2023/07/14 13:03:20;;;;;;;11.13;3.83;;;15.10;99.90;;;;;;4919612;29;20028;-95